LTBJ/ADB METAR and TAF weather

Enter ICAO airport designator
Station Type Date Time Source
LTBJ METAR 2019/06/18 04:20 UTC NOAA

LTBJ 180420Z 14004KT 120V180 9999 SCT030 SCT100 22/18 Q1009 NOSIG


Station Type Date Time Source
LTBJ Decoded METAR 2019/06/18 04:20 UTC NOAA

Izmir / Adnan Menderes, Turkey (LTBJ) 38-16N 027-09E 120M
Jun 18, 2019 - 12:20 AM EDT / 2019.06.18 0420 UTC
Wind: from the SE (140 degrees) at 5 MPH (4 KT) (direction variable):0
Visibility: greater than 7 mile(s):0
Sky conditions: partly cloudy
Temperature: 71 F (22 C)
Dew Point: 64 F (18 C)
Relative Humidity: 78%
Pressure (altimeter): 29.80 in. Hg (1009 hPa)
ob: LTBJ 180420Z 14004KT 120V180 9999 SCT030 SCT100 22/18 Q1009 NOSIG
cycle: 4

Station Type Date Time Source
LTBJ TAF 2019/06/17 20:33 UTC NOAA

TAF
AMD TAF
AMD LTBJ 172027Z 1720/1818 VRB02KT 9999 SCT030 BKN100
TEMPO 1720/1724 -SHRA
BECMG 1806/1809 36012KT
TEMPO 1810/1814 36015G25KT -TSRA FEW015CB BKN025 PROB40
TEMPO 1814/1818 -TSRA FEW015CB BKN025

Example: see airport list